East Peoria, IL (61611)

2:10 PM CDT on May 27, 2017 (GMT -0500)
Midwest Engineering Associates East Peoria | | Change Station
Active Advisory: Flood Warning

Elev 468 ft 40.67 °N, 89.58 °W | Updated 18 seconds ago

Mostly Cloudy
Mostly Cloudy
75.3 °F
Feels Like 77 °F
N
6.1
Wind Variable Wind from ENE
Gusts 6.1 mph

Today
High -- | Low -- °F
--% Chance of Precip.
Yesterday
High -- | Low -- °F
Precip. -- in
Pressure 29.89 in
Visibility 10.0 miles
Clouds Clear
Heat Index 77 °F
Dew Point 61 °F
Humidity 63%
Rainfall 0.00 in
Snow Depth Not available.
5:31 AM 8:19 PM
Waxing Crescent, 6% visible
METAR KPIA 271754Z VRB06KT 10SM CLR 23/17 A2990 RMK AO2 SLP121 T02330167 10233 20150 58006
Pressure 29.89 in
Visibility 10.0 miles
Clouds Clear
Heat Index 77 °F
Dew Point 61 °F
Humidity 63%
Rainfall 0.00 in
Snow Depth Not available.
5:31 AM 8:19 PM
Waxing Crescent, 6% visible
METAR KPIA 271754Z VRB06KT 10SM CLR 23/17 A2990 RMK AO2 SLP121 T02330167 10233 20150 58006

Get Your Daily Forecast Email!

Thanks for signing up!

Be on the lookout for a verification email in your inbox.

You'll start receiving severe weather alerts in your inbox..

×

10-Day Weather Forecast

Almanac

Astronomy

May. 27, 2017 Rise Set
Actual Time
Civil Twilight
Nautical Twilight
Astronomical Twilight
Moon
Length of Visible Light
Length of Day
Tomorrow will be .
, % of the Moon is Illuminated

Today's Extremes

State Highs State Lows

Community

WunderPhotos

Category 6

Welcome to Category 6. This is the collective home for Weather Underground's featured writeups by Dr. Jeff Masters (right), Bob Henson (left), Chris Burt, and other regular contributors.

Nearby

Air Quality

  Air Quality AQ Index Pollutant
Not available.

Snow Depth

Station Depth Elevation

Earthquake Activity

City Distance Mag. Time & Date
Minimum magnitude displayed is 2.5.

Coastal Water Temperatures

Place Temperature

Stations

Nearby Weather Stations

Station Location Temp. Windchill Dew Point Humidity Wind Precip. Elev Updated Type
                   

Watches & Warnings

Flood Warning
Issued: 10:30 AM CDT May. 27, 2017 – National Weather Service

The Flood Warning continues for
the Illinois River at Peoria.
* Until late tonight.
* At 945 am Saturday the stage was 18.0 feet.
* Flood stage is 18.0 feet.
* Forecast... the river will continue to fall to below flood stage by
this evening.
* Impact... at 18.0 feet... some flooding begins to bottomland not
protected by levees.



                  Fld observed forecast 6am
location stg stg day time sun Mon Tue

Illinois River
Peoria 18 18.0 Sat 10 am 17.9 17.7 17.6



Lat... Lon 4093 8952 4093 8941 4062 8957 4047 8980
      4053 8988 4068 8965